Terminal Aerodrome Forecast
Issued by NWS

Home | Current Version | Previous Version | Text Only | Print | Product List | Glossary On
Versions: 1 2 3 4 5 6 7 8 9 10 11 12 13 14 15 16 17 18 19 20 21 22 23 24
000
FTUS44 KOUN 210520
TAFLAW
TAF
KLAW 210520Z 2106/2206 16016G26KT P6SM BKN040
     FM210800 15014KT P6SM OVC015
     FM211500 18015G24KT P6SM BKN025
     FM212100 18017G24KT P6SM OVC050
     FM220000 18017G25KT P6SM TSRA BKN030CB OVC090
     FM220300 35016G24KT P6SM BKN070=

USA.gov is the U.S. government's official web portal to all federal, state and local government web resources and services.